Time;durP1;ratioP1;P1;durP2;ratioP2;P2;SDS_P1;SDS_P2;PMS_P1;PMS_P2;Temp;Humidity;BMP_temperature;BMP_pressure;BME280_temperature;BME280_humidity;BME280_pressure;Samples;Min_cycle;Max_cycle;Signal;HPM_P1;HPM_P2
2022/09/20 00:01:13;;;;;;;;;;;;;;;21.32;56.61;102285.78;7280780;19;152541;-58
2022/09/20 00:03:42;;;;;;;;;;;;;;;21.35;57.22;102285.22;7282880;19;154394;-57
2022/09/20 00:06:13;;;;;;;;;;;;;;;21.35;57.24;102281.59;7284155;19;151810;-58
2022/09/20 00:08:40;;;;;;;;;;;;;;;21.33;57.07;102275.38;7290481;19;154318;-58
2022/09/20 00:11:09;;;;;;;;;;;;;;;21.30;57.47;102277.63;7283948;19;153751;-58
2022/09/20 00:13:37;;;;;;;;;;;;;;;21.30;57.18;102277.63;7283195;19;153432;-58
2022/09/20 00:16:05;;;;;;;;;;;;;;;21.31;57.28;102281.28;7281493;19;152608;-58
2022/09/20 00:18:32;;;;;;;;;;;;;;;21.31;57.48;102278.47;7283318;19;153327;-58
2022/09/20 00:20:58;;;;;;;;;;;;;;;21.29;57.07;102283.53;7282326;19;153555;-58
2022/09/20 00:23:25;;;;;;;;;;;;;;;21.28;57.43;102291.13;7284219;19;152910;-58
2022/09/20 00:25:58;;;;;;;;;;;;;;;21.28;57.66;102287.47;7283192;19;152254;-58
2022/09/20 00:28:26;;;;;;;;;;;;;;;21.27;57.69;102289.44;7281213;19;154581;-58
2022/09/20 00:30:53;;;;;;;;;;;;;;;21.28;57.56;102293.09;7287905;19;152262;-58
2022/09/20 00:33:20;;;;;;;;;;;;;;;21.28;57.72;102293.09;7281689;19;152326;-58
2022/09/20 00:35:47;;;;;;;;;;;;;;;21.27;57.84;102288.59;7283621;19;152301;-58
2022/09/20 00:38:14;;;;;;;;;;;;;;;21.26;57.83;102298.13;7284548;19;153116;-58
2022/09/20 00:40:41;;;;;;;;;;;;;;;21.24;57.94;102295.63;7278775;19;154198;-58
2022/09/20 00:43:14;;;;;;;;;;;;;;;21.24;57.48;102286.34;7280513;19;152463;-58
2022/09/20 00:45:44;;;;;;;;;;;;;;;21.24;57.87;102283.53;7277672;19;153751;-58
2022/09/20 00:48:29;;;;;;;;;;;;;;;21.22;58.05;102285.78;7282639;19;153801;-58
2022/09/20 00:51:08;;;;;;;;;;;;;;;21.23;58.10;102288.31;7283138;19;151789;-58
2022/09/20 00:53:37;;;;;;;;;;;;;;;21.23;58.15;102290.28;7288552;19;152404;-58
2022/09/20 00:56:08;;;;;;;;;;;;;;;21.20;58.30;102290.84;7282434;19;153469;-58
2022/09/20 00:58:37;;;;;;;;;;;;;;;21.22;57.96;102299.81;7282197;19;151905;-58
2022/09/20 01:01:04;;;;;;;;;;;;;;;21.19;58.24;102295.63;7277938;19;153772;-58
2022/09/20 01:03:33;;;;;;;;;;;;;;;21.20;58.33;102288.88;7278673;19;152733;-58
2022/09/20 01:06:06;;;;;;;;;;;;;;;21.20;58.18;102290.84;7277522;19;153465;-58
2022/09/20 01:08:34;;;;;;;;;;;;;;;21.19;58.03;102300.41;7278684;19;154149;-58
2022/09/20 01:11:01;;;;;;;;;;;;;;;21.19;58.20;102298.44;7277871;19;152199;-58
2022/09/20 01:13:27;;;;;;;;;;;;;;;21.19;58.30;102297.59;7278226;19;152053;-58
2022/09/20 01:15:57;;;;;;;;;;;;;;;21.20;57.91;102302.09;7282706;19;152414;-58
2022/09/20 01:18:25;;;;;;;;;;;;;;;21.19;57.99;102297.59;7278648;19;152865;-58
2022/09/20 01:20:52;;;;;;;;;;;;;;;21.18;58.22;102301.50;7273940;19;153802;-58
2022/09/20 01:23:31;;;;;;;;;;;;;;;21.17;58.04;102297.00;7278578;19;152258;-58
2022/09/20 01:26:10;;;;;;;;;;;;;;;21.16;58.52;102304.63;7277548;19;153841;-58
2022/09/20 01:28:37;;;;;;;;;;;;;;;21.17;58.23;102299.81;7272579;19;153655;-58
2022/09/20 01:31:07;;;;;;;;;;;;;;;21.17;58.53;102302.63;7276276;19;152402;-58
2022/09/20 01:33:42;;;;;;;;;;;;;;;21.15;58.13;102302.09;7276046;19;154180;-58
2022/09/20 01:36:10;;;;;;;;;;;;;;;21.16;58.27;102304.63;7277864;19;153908;-58
2022/09/20 01:38:42;;;;;;;;;;;;;;;21.16;58.54;102304.63;7284796;19;152822;-58
2022/09/20 01:41:19;;;;;;;;;;;;;;;21.16;58.56;102303.78;7277318;19;153775;-58
2022/09/20 01:43:54;;;;;;;;;;;;;;;21.14;58.21;102309.66;7282800;19;151816;-58
2022/09/20 01:46:28;;;;;;;;;;;;;;;21.14;58.40;102311.63;7275955;19;152966;-58
2022/09/20 01:49:05;;;;;;;;;;;;;;;21.15;58.20;102310.53;7282769;19;153020;-58
2022/09/20 01:51:48;;;;;;;;;;;;;;;21.14;58.43;102311.63;7284764;19;153073;-58
2022/09/20 01:54:14;;;;;;;;;;;;;;;21.13;58.72;102309.94;7281889;19;152397;-58
2022/09/20 01:56:44;;;;;;;;;;;;;;;21.13;58.26;102310.78;7282767;19;153476;-58
2022/09/20 01:59:11;;;;;;;;;;;;;;;21.14;58.63;102308.81;7284099;19;152140;-58
2022/09/20 02:01:54;;;;;;;;;;;;;;;21.14;58.71;102314.44;7294688;19;152664;-58
2022/09/20 02:04:40;;;;;;;;;;;;;;;21.13;58.81;102307.97;7284992;19;153054;-58
2022/09/20 02:07:18;;;;;;;;;;;;;;;21.12;58.64;102300.63;7288719;19;152663;-58
2022/09/20 02:09:47;;;;;;;;;;;;;;;21.12;58.87;102309.06;7285543;19;153683;-58
2022/09/20 02:12:32;;;;;;;;;;;;;;;21.12;58.71;102294.19;7288332;19;152928;-59
2022/09/20 02:15:05;;;;;;;;;;;;;;;21.13;58.50;102298.69;7286911;19;153548;-58
2022/09/20 02:17:44;;;;;;;;;;;;;;;21.13;58.99;102295.88;7287071;19;153560;-58
2022/09/20 02:20:13;;;;;;;;;;;;;;;21.11;58.71;102300.94;7285870;19;152758;-59
2022/09/20 02:23:09;;;;;;;;;;;;;;;21.11;58.95;102301.78;7294579;19;153391;-58
2022/09/20 02:25:42;;;;;;;;;;;;;;;21.11;59.06;102298.13;7280865;19;153759;-58
2022/09/20 02:28:27;;;;;;;;;;;;;;;21.11;58.82;102293.34;7286943;19;152926;-58
2022/09/20 02:30:54;;;;;;;;;;;;;;;21.10;58.85;102294.47;7285342;19;153136;-58
2022/09/20 02:33:43;;;;;;;;;;;;;;;21.10;59.02;102293.63;7284826;19;152286;-58
2022/09/20 02:36:28;;;;;;;;;;;;;;;21.11;58.82;102295.31;7286194;19;152785;-58
2022/09/20 02:39:07;;;;;;;;;;;;;;;21.11;58.85;102298.13;7285206;19;155189;-58
2022/09/20 02:41:45;;;;;;;;;;;;;;;21.09;59.12;102301.19;7283212;19;152216;-58
2022/09/20 02:44:17;;;;;;;;;;;;;;;21.11;58.83;102298.13;7286563;19;153176;-58
2022/09/20 02:47:02;;;;;;;;;;;;;;;21.09;58.93;102303.16;7286044;19;153833;-59
2022/09/20 02:49:51;;;;;;;;;;;;;;;21.09;59.06;102305.97;7283127;19;152603;-58
2022/09/20 02:52:36;;;;;;;;;;;;;;;21.09;59.00;102308.78;7285026;19;152354;-58
2022/09/20 02:55:07;;;;;;;;;;;;;;;21.10;59.24;102313.28;7282388;19;153005;-58
2022/09/20 02:57:34;;;;;;;;;;;;;;;21.07;59.28;102305.41;7283469;19;152983;-58
2022/09/20 03:00:00;;;;;;;;;;;;;;;21.07;59.05;102306.28;7280413;19;153418;-58
2022/09/20 03:02:27;;;;;;;;;;;;;;;21.08;58.90;102310.75;7286128;19;152489;-58
2022/09/20 03:05:13;;;;;;;;;;;;;;;21.08;58.78;102309.91;7285438;19;152650;-58
2022/09/20 03:07:58;;;;;;;;;;;;;;;21.07;59.06;102302.63;7284403;19;153485;-58
2022/09/20 03:10:25;;;;;;;;;;;;;;;21.08;58.97;102307.09;7292987;19;152075;-58
2022/09/20 03:12:51;;;;;;;;;;;;;;;21.07;59.22;102303.47;7285053;19;153899;-58
2022/09/20 03:15:27;;;;;;;;;;;;;;;21.06;58.91;102307.38;7285969;19;152457;-59
2022/09/20 03:17:54;;;;;;;;;;;;;;;21.05;59.25;102302.88;7281661;19;153456;-58
2022/09/20 03:20:28;;;;;;;;;;;;;;;21.05;59.54;102296.41;7276403;19;153293;-59
2022/09/20 03:22:58;;;;;;;;;;;;;;;21.05;59.24;102296.41;7279558;19;153179;-59
2022/09/20 03:25:25;;;;;;;;;;;;;;;21.06;59.22;102293.34;7280677;19;153768;-59
2022/09/20 03:27:54;;;;;;;;;;;;;;;21.07;58.96;102295.03;7278602;19;152671;-57
2022/09/20 03:30:40;;;;;;;;;;;;;;;21.08;59.75;102290.22;7282008;19;154036;-58
2022/09/20 03:33:06;;;;;;;;;;;;;;;21.07;59.45;102295.03;7286404;19;153232;-58
2022/09/20 03:35:42;;;;;;;;;;;;;;;21.08;59.45;102293.03;7281331;19;152648;-57
2022/09/20 03:38:09;;;;;;;;;;;;;;;21.07;59.48;102297.00;7280825;19;152523;-57
2022/09/20 03:40:54;;;;;;;;;;;;;;;21.06;59.67;102293.34;7280130;19;153677;-58
2022/09/20 03:43:42;;;;;;;;;;;;;;;21.08;59.52;102287.41;7281273;19;152852;-58
2022/09/20 03:46:09;;;;;;;;;;;;;;;21.07;59.83;102297.84;7278490;19;153012;-58
2022/09/20 03:48:53;;;;;;;;;;;;;;;21.07;59.29;102300.66;7271306;19;154568;-58
2022/09/20 03:51:38;;;;;;;;;;;;;;;21.06;59.36;102300.91;7281322;19;152312;-58
2022/09/20 03:54:20;;;;;;;;;;;;;;;21.06;59.66;102301.75;7280091;19;153414;-58
2022/09/20 03:56:58;;;;;;;;;;;;;;;21.05;60.01;102302.88;7286932;19;154333;-57
2022/09/20 03:59:36;;;;;;;;;;;;;;;21.03;60.10;102302.31;7277501;19;152128;-58
2022/09/20 04:02:21;;;;;;;;;;;;;;;21.04;59.72;102294.72;7275623;19;153507;-58
2022/09/20 04:04:54;;;;;;;;;;;;;;;21.04;59.77;102301.19;7278252;19;152058;-57
2022/09/20 04:07:50;;;;;;;;;;;;;;;21.03;60.16;102295.88;7281448;19;153363;-58
2022/09/20 04:10:24;;;;;;;;;;;;;;;21.02;60.32;102297.84;7274062;19;153844;-58
2022/09/20 04:12:57;;;;;;;;;;;;;;;21.02;60.17;102305.41;7281651;19;152066;-58
2022/09/20 04:15:29;;;;;;;;;;;;;;;21.02;60.31;102300.63;7284122;19;153336;-58
2022/09/20 04:18:00;;;;;;;;;;;;;;;21.01;60.08;102306.53;7281492;19;154302;-58
2022/09/20 04:20:26;;;;;;;;;;;;;;;20.99;60.00;102304.00;7291304;19;152237;-58
2022/09/20 04:22:56;;;;;;;;;;;;;;;20.98;60.46;102302.31;7281854;19;154099;-58
2022/09/20 04:25:28;;;;;;;;;;;;;;;20.98;60.23;102295.84;7285078;19;152688;-58
2022/09/20 04:28:10;;;;;;;;;;;;;;;20.98;60.46;102305.13;7282511;19;153330;-58
2022/09/20 04:30:42;;;;;;;;;;;;;;;20.98;60.08;102301.47;7282690;19;154126;-57
2022/09/20 04:33:15;;;;;;;;;;;;;;;20.96;60.01;102298.94;7283205;19;152458;-58
2022/09/20 04:38:28;;;;;;;;;;;;;;;20.96;60.22;102307.38;7282195;19;153375;-58
2022/09/20 04:41:15;;;;;;;;;;;;;;;20.96;60.33;102296.13;7289698;19;152184;-57
2022/09/20 04:43:50;;;;;;;;;;;;;;;20.97;60.13;102294.16;7282054;19;154401;-57
2022/09/20 04:46:35;;;;;;;;;;;;;;;20.97;60.06;102303.44;7282980;19;155026;-57
2022/09/20 04:49:02;;;;;;;;;;;;;;;20.96;60.09;102296.13;7274398;19;153867;-57
2022/09/20 04:51:31;;;;;;;;;;;;;;;20.96;59.93;102290.50;7278506;19;154199;-58
2022/09/20 04:54:17;;;;;;;;;;;;;;;20.96;59.84;102298.09;7281709;19;153224;-57
2022/09/20 04:56:43;;;;;;;;;;;;;;;20.95;60.12;102299.19;7283683;19;153955;-57
2022/09/20 04:59:25;;;;;;;;;;;;;;;20.95;60.02;102302.00;7279646;19;153481;-59
2022/09/20 05:02:07;;;;;;;;;;;;;;;20.98;59.79;102307.09;7280070;19;152532;-58
2022/09/20 05:04:52;;;;;;;;;;;;;;;20.98;60.20;102301.47;7288654;19;152660;-58
2022/09/20 05:07:19;;;;;;;;;;;;;;;20.96;60.22;102303.69;7283239;19;151857;-58
2022/09/20 05:10:00;;;;;;;;;;;;;;;20.97;60.16;102305.41;7281564;19;152162;-58
2022/09/20 05:12:42;;;;;;;;;;;;;;;20.95;60.16;102300.03;7283103;19;153401;-58
2022/09/20 05:15:35;;;;;;;;;;;;;;;20.96;60.02;102303.69;7279076;19;152036;-58
2022/09/20 05:18:11;;;;;;;;;;;;;;;20.95;59.71;102305.66;7281570;19;156143;-58
2022/09/20 05:20:38;;;;;;;;;;;;;;;20.97;59.63;102299.78;7281132;19;153462;-58
2022/09/20 05:23:14;;;;;;;;;;;;;;;20.95;59.73;102302.84;7281810;19;153063;-58
2022/09/20 05:25:53;;;;;;;;;;;;;;;20.95;59.63;102293.59;7281806;19;153645;-58
2022/09/20 05:28:20;;;;;;;;;;;;;;;20.96;59.62;102292.47;7288024;19;153370;-58
2022/09/20 05:31:06;;;;;;;;;;;;;;;20.95;59.56;102290.78;7281589;19;152955;-58
2022/09/20 05:33:53;;;;;;;;;;;;;;;20.99;59.93;102297.53;7275873;19;153936;-59
2022/09/20 05:36:28;;;;;;;;;;;;;;;20.98;60.10;102304.28;7270265;19;155648;-58
2022/09/20 05:39:00;;;;;;;;;;;;;;;20.97;60.86;102306.25;7275148;19;152430;-58
2022/09/20 05:41:35;;;;;;;;;;;;;;;20.99;61.00;102314.38;7275971;19;154373;-59
2022/09/20 05:44:21;;;;;;;;;;;;;;;21.00;61.57;102308.50;7275985;19;152983;-58
2022/09/20 05:47:17;;;;;;;;;;;;;;;21.04;61.38;102312.44;7278708;19;153311;-58
2022/09/20 05:49:50;;;;;;;;;;;;;;;21.09;61.60;102320.03;7267492;19;154489;-58
2022/09/20 05:52:35;;;;;;;;;;;;;;;21.11;61.91;102318.63;7279584;19;152242;-58
2022/09/20 05:55:17;;;;;;;;;;;;;;;21.15;62.36;102328.22;7277165;19;153904;-58
2022/09/20 05:57:55;;;;;;;;;;;;;;;21.20;62.42;102327.38;7274750;19;152482;-58
2022/09/20 06:00:26;;;;;;;;;;;;;;;21.23;61.89;102324.00;7273927;19;152271;-59
2022/09/20 06:03:14;;;;;;;;;;;;;;;21.27;61.81;102325.97;7272555;19;152299;-59
2022/09/20 06:05:48;;;;;;;;;;;;;;;21.31;62.31;102331.88;7276597;19;152519;-58
2022/09/20 06:08:28;;;;;;;;;;;;;;;21.34;62.06;102322.91;7275602;19;154025;-58
2022/09/20 06:10:55;;;;;;;;;;;;;;;21.39;61.95;102327.69;7274628;19;154302;-58
2022/09/20 06:13:40;;;;;;;;;;;;;;;21.41;61.55;102329.09;7275832;19;152550;-59
2022/09/20 06:16:09;;;;;;;;;;;;;;;21.44;61.76;102322.06;7281967;19;153667;-58
2022/09/20 06:18:47;;;;;;;;;;;;;;;21.46;61.28;102320.66;7275003;19;152440;-58
2022/09/20 06:21:14;;;;;;;;;;;;;;;21.49;61.00;102322.88;7274723;19;152149;-58
2022/09/20 06:23:41;;;;;;;;;;;;;;;21.51;61.27;102331.91;7274443;19;152887;-57
2022/09/20 06:26:16;;;;;;;;;;;;;;;21.54;61.12;102327.66;7275368;19;152440;-58
2022/09/20 06:28:48;;;;;;;;;;;;;;;21.56;60.83;102331.06;7286092;19;152244;-57
2022/09/20 06:31:16;;;;;;;;;;;;;;;21.56;60.67;102334.72;7285570;19;153273;-57
2022/09/20 06:33:49;;;;;;;;;;;;;;;21.60;60.55;102332.19;7285017;19;152188;-58
2022/09/20 06:42:09;;;;;;;;;;;;;;;21.64;60.49;102345.41;7287101;19;152829;-58
2022/09/20 06:44:40;;;;;;;;;;;;;;;21.67;60.29;102353.25;7285130;19;154567;-58
2022/09/20 06:47:08;;;;;;;;;;;;;;;21.67;59.70;102355.22;7286829;19;151961;-58
2022/09/20 06:49:35;;;;;;;;;;;;;;;21.69;59.96;102356.66;7280039;19;153797;-58
2022/09/20 06:52:06;;;;;;;;;;;;;;;21.69;59.97;102356.66;7281557;19;153910;-58
2022/09/20 06:54:44;;;;;;;;;;;;;;;21.71;59.58;102356.38;7286246;19;152694;-57
2022/09/20 06:57:18;;;;;;;;;;;;;;;21.71;59.25;102354.38;7285421;19;152554;-57
2022/09/20 06:59:45;;;;;;;;;;;;;;;21.71;59.36;102360.00;7291039;19;153471;-58
2022/09/20 07:02:12;;;;;;;;;;;;;;;21.71;59.28;102360.00;7284621;19;153888;-58
2022/09/20 07:04:38;;;;;;;;;;;;;;;21.72;59.61;102364.50;7283782;19;153167;-58
2022/09/20 07:07:06;;;;;;;;;;;;;;;21.72;59.35;102364.50;7286830;19;152081;-58
2022/09/20 07:09:35;;;;;;;;;;;;;;;21.71;59.12;102362.81;7284058;19;152484;-59
2022/09/20 07:12:01;;;;;;;;;;;;;;;21.72;59.49;102367.31;7283790;19;152621;-58
2022/09/20 07:14:36;;;;;;;;;;;;;;;21.72;59.17;102361.69;7282623;19;153127;-58
2022/09/20 07:17:03;;;;;;;;;;;;;;;21.73;59.47;102368.16;7285403;19;153497;-58
2022/09/20 07:19:30;;;;;;;;;;;;;;;21.72;59.25;102367.31;7283240;19;154363;-58
2022/09/20 07:21:56;;;;;;;;;;;;;;;21.75;59.79;102357.50;7292628;19;152447;-59
2022/09/20 07:24:23;;;;;;;;;;;;;;;21.77;59.25;102362.81;7280845;19;152629;-58
2022/09/20 07:26:54;;;;;;;;;;;;;;;21.76;59.37;102366.78;7286844;19;152311;-58
2022/09/20 07:29:21;;;;;;;;;;;;;;;21.76;58.91;102359.16;7284078;19;153061;-58
2022/09/20 07:31:49;;;;;;;;;;;;;;;21.76;59.47;102363.97;7284735;19;153860;-57
2022/09/20 07:34:19;;;;;;;;;;;;;;;21.76;59.39;102364.78;7283268;19;152381;-58
2022/09/20 07:36:46;;;;;;;;;;;;;;;21.74;59.38;102367.91;7286728;19;152942;-58
2022/09/20 07:39:13;;;;;;;;;;;;;;;21.75;59.42;102368.75;7280882;19;153230;-57
2022/09/20 07:41:40;;;;;;;;;;;;;;;21.76;59.44;102366.78;7285165;19;151800;-58
2022/09/20 07:47:00;;;;;;;;;;;;;;;21.77;59.00;102365.63;7281212;19;152181;-57
2022/09/20 07:49:30;;;;;;;;;;;;;;;21.76;59.26;102364.78;7276387;19;152073;-57
2022/09/20 07:51:57;;;;;;;;;;;;;;;21.77;59.01;102376.88;7270281;19;153824;-58
2022/09/20 07:54:26;;;;;;;;;;;;;;;21.78;58.77;102376.63;7275179;19;153122;-58
2022/09/20 07:56:53;;;;;;;;;;;;;;;21.76;59.15;102386.47;7282708;19;151915;-58
2022/09/20 07:59:20;;;;;;;;;;;;;;;21.78;58.61;102385.06;7279436;19;154134;-58
2022/09/20 08:01:47;;;;;;;;;;;;;;;21.79;58.82;102381.13;7282218;19;152748;-58
2022/09/20 08:04:14;;;;;;;;;;;;;;;21.80;58.76;102385.63;7281052;19;152766;-59
2022/09/20 08:06:44;;;;;;;;;;;;;;;21.80;58.76;102384.78;7288196;19;154481;-58
2022/09/20 08:09:13;;;;;;;;;;;;;;;21.79;58.87;102388.72;7282350;19;153554;-58
2022/09/20 08:11:40;;;;;;;;;;;;;;;21.82;59.07;102390.94;7280233;19;154414;-58
2022/09/20 08:14:11;;;;;;;;;;;;;;;21.79;59.20;102398.00;7279666;19;152168;-59
2022/09/20 08:16:40;;;;;;;;;;;;;;;21.80;59.19;102399.69;7280072;19;152296;-58
2022/09/20 08:19:08;;;;;;;;;;;;;;;21.81;59.46;102395.72;7277458;19;153626;-58
2022/09/20 08:21:37;;;;;;;;;;;;;;;21.83;59.53;102401.09;7277777;19;152148;-58
2022/09/20 08:24:04;;;;;;;;;;;;;;;21.85;59.43;102396.03;7278141;19;152777;-58
2022/09/20 08:26:31;;;;;;;;;;;;;;;21.87;59.53;102397.44;7277650;19;153431;-58
2022/09/20 08:28:58;;;;;;;;;;;;;;;21.92;59.49;102402.22;7286156;19;152653;-58
2022/09/20 08:31:27;;;;;;;;;;;;;;;21.94;59.46;102411.25;7277421;19;153922;-58
2022/09/20 08:33:55;;;;;;;;;;;;;;;21.98;60.02;102401.97;7275496;19;153532;-58
2022/09/20 08:36:27;;;;;;;;;;;;;;;22.02;59.65;102405.91;7279429;19;152812;-58
2022/09/20 08:39:01;;;;;;;;;;;;;;;22.06;59.86;102403.34;7278871;19;153668;-59
2022/09/20 08:41:50;;;;;;;;;;;;;;;22.11;59.62;102411.81;7280807;19;152051;-58
2022/09/20 08:44:25;;;;;;;;;;;;;;;22.14;59.56;102406.44;7281218;19;152211;-59
2022/09/20 08:46:56;;;;;;;;;;;;;;;22.18;59.59;102410.38;7279012;19;154229;-58
2022/09/20 08:49:25;;;;;;;;;;;;;;;22.24;59.08;102416.84;7287580;19;151990;-58
2022/09/20 08:51:56;;;;;;;;;;;;;;;22.29;59.33;102410.34;7278870;19;153514;-59
2022/09/20 08:54:36;;;;;;;;;;;;;;;22.34;59.31;102415.97;7277075;19;152370;-58
2022/09/20 08:57:10;;;;;;;;;;;;;;;22.38;59.13;102412.31;7281988;19;153856;-58
2022/09/20 08:59:39;;;;;;;;;;;;;;;22.41;58.88;102414.53;7279124;19;154491;-58
2022/09/20 09:02:08;;;;;;;;;;;;;;;22.46;58.78;102405.25;7280404;19;152313;-58
2022/09/20 09:07:06;;;;;;;;;;;;;;;22.52;58.88;102416.22;7269779;19;152480;-59
2022/09/20 09:09:35;;;;;;;;;;;;;;;22.57;58.78;102418.19;7282719;19;151929;-58
2022/09/20 09:12:03;;;;;;;;;;;;;;;22.59;58.29;102407.44;7289161;19;153731;-58
2022/09/20 09:17:02;;;;;;;;;;;;;;;22.66;57.94;102412.78;7280396;19;152798;-58
2022/09/20 09:19:30;;;;;;;;;;;;;;;22.69;58.38;102406.56;7277403;19;152673;-59
2022/09/20 09:21:57;;;;;;;;;;;;;;;22.72;57.91;102408.81;7280099;19;152324;-58
2022/09/20 09:24:24;;;;;;;;;;;;;;;22.74;57.83;102413.06;7277284;19;153224;-59
2022/09/20 09:27:04;;;;;;;;;;;;;;;22.76;57.18;102410.78;7280933;19;154514;-57
2022/09/20 09:29:31;;;;;;;;;;;;;;;22.80;54.70;102419.53;7280332;19;154581;-58
2022/09/20 09:32:18;;;;;;;;;;;;;;;22.76;51.99;102430.50;7279991;19;152076;-57
2022/09/20 09:34:46;;;;;;;;;;;;;;;22.77;50.65;102420.09;7286925;19;152058;-56
2022/09/20 09:37:34;;;;;;;;;;;;;;;22.72;47.76;102428.56;7283554;19;152258;-56
2022/09/20 09:40:15;;;;;;;;;;;;;;;22.66;46.15;102424.06;7279406;19;152510;-57
2022/09/20 09:42:53;;;;;;;;;;;;;;;22.64;46.51;102432.78;7279358;19;152622;-57
2022/09/20 09:45:34;;;;;;;;;;;;;;;22.61;45.51;102433.38;7283107;19;153608;-57
2022/09/20 09:48:04;;;;;;;;;;;;;;;22.56;45.28;102425.78;7278326;19;154402;-58
2022/09/20 09:50:33;;;;;;;;;;;;;;;22.54;44.75;102427.19;7270359;19;153274;-58
2022/09/20 09:53:11;;;;;;;;;;;;;;;22.53;44.82;102425.50;7270835;19;153398;-58
2022/09/20 09:55:51;;;;;;;;;;;;;;;22.47;43.96;102433.13;7272856;19;152559;-58
2022/09/20 09:58:57;;;;;;;;;;;;;;;22.45;44.24;102424.09;7282796;19;152409;-57
2022/09/20 10:01:44;;;;;;;;;;;;;;;22.43;43.73;102431.16;7273076;19;154289;-57
2022/09/20 10:04:33;;;;;;;;;;;;;;;22.43;43.59;102433.97;7277547;19;154986;-57
2022/09/20 10:07:15;;;;;;;;;;;;;;;22.45;44.16;102423.25;7283455;19;153676;-57
2022/09/20 10:09:51;;;;;;;;;;;;;;;22.44;44.67;102430.88;7281459;19;152488;-57
2022/09/20 10:12:22;;;;;;;;;;;;;;;22.41;44.14;102428.63;7283990;19;152565;-57
2022/09/20 10:15:05;;;;;;;;;;;;;;;22.38;43.04;102425.53;7275063;19;153656;-58
2022/09/20 10:17:41;;;;;;;;;;;;;;;22.34;43.31;102428.09;7283751;19;153281;-57
2022/09/20 10:20:14;;;;;;;;;;;;;;;22.34;43.36;102428.09;7283390;19;153079;-58
2022/09/20 10:22:52;;;;;;;;;;;;;;;22.34;43.13;102416.81;7290751;19;153019;-57
2022/09/20 10:25:38;;;;;;;;;;;;;;;22.34;43.30;102410.34;7284695;19;152199;-57
2022/09/20 10:28:12;;;;;;;;;;;;;;;22.34;43.21;102422.47;7280391;19;153381;-59
2022/09/20 10:31:02;;;;;;;;;;;;;;;22.31;42.92;102419.34;7281514;19;153536;-58
2022/09/20 10:33:48;;;;;;;;;;;;;;;22.30;43.22;102415.72;7282854;19;152096;-59
2022/09/20 10:36:42;;;;;;;;;;;;;;;22.30;43.55;102418.53;7281909;19;152723;-57
2022/09/20 10:39:17;;;;;;;;;;;;;;;22.31;43.65;102413.72;7280718;19;156258;-59
2022/09/20 10:44:56;;;;;;;;;;;;;;;22.29;43.63;102413.16;7283538;19;153006;-57
2022/09/20 10:47:27;;;;;;;;;;;;;;;22.33;44.40;102405.84;7293375;19;152283;-59
2022/09/20 10:49:55;;;;;;;;;;;;;;;22.28;44.00;102412.31;7286998;19;153605;-58
2022/09/20 10:52:25;;;;;;;;;;;;;;;22.29;44.03;102411.19;7285475;19;154191;-59
2022/09/20 10:55:02;;;;;;;;;;;;;;;22.27;44.20;102410.63;7285003;19;153683;-59
2022/09/20 10:57:40;;;;;;;;;;;;;;;22.27;44.40;102404.16;7284252;19;153745;-59
2022/09/20 11:00:31;;;;;;;;;;;;;;;22.29;44.72;102402.75;7282637;19;154254;-58
2022/09/20 11:03:16;;;;;;;;;;;;;;;22.29;44.35;102407.53;7282869;19;152210;-59
2022/09/20 11:05:52;;;;;;;;;;;;;;;22.31;45.38;102402.44;7286105;19;153177;-58
2022/09/20 11:08:21;;;;;;;;;;;;;;;22.33;45.24;102403.88;7292148;19;153819;-58
2022/09/20 11:10:51;;;;;;;;;;;;;;;22.33;45.99;102405.84;7286996;19;153672;-59
2022/09/20 11:13:44;;;;;;;;;;;;;;;22.34;46.09;102407.53;7284821;19;153902;-58
2022/09/20 11:16:13;;;;;;;;;;;;;;;22.35;46.42;102406.41;7283644;19;151814;-59
2022/09/20 11:18:47;;;;;;;;;;;;;;;22.34;46.49;102405.56;7285003;19;152434;-59
2022/09/20 11:21:18;;;;;;;;;;;;;;;22.32;46.66;102406.97;7284337;19;154088;-58
2022/09/20 11:23:50;;;;;;;;;;;;;;;22.35;47.04;102398.78;7285355;19;152421;-59
2022/09/20 11:26:37;;;;;;;;;;;;;;;22.32;47.60;102390.91;7285318;19;153360;-58
2022/09/20 11:29:27;;;;;;;;;;;;;;;22.34;47.45;102394.31;7284645;19;154078;-59
2022/09/20 11:31:56;;;;;;;;;;;;;;;22.36;48.05;102402.44;7292344;19;152503;-59
2022/09/20 11:34:44;;;;;;;;;;;;;;;22.38;48.35;102401.03;7283125;19;154323;-59
2022/09/20 11:37:11;;;;;;;;;;;;;;;22.39;48.38;102404.72;7286106;19;152178;-59
2022/09/20 11:39:49;;;;;;;;;;;;;;;22.40;48.39;102398.75;7284223;19;154565;-59
2022/09/20 11:42:19;;;;;;;;;;;;;;;22.40;48.47;102401.59;7285242;19;155145;-58
2022/09/20 11:44:49;;;;;;;;;;;;;;;22.42;49.09;102398.50;7283182;19;152440;-59
2022/09/20 11:47:45;;;;;;;;;;;;;;;22.41;49.04;102394.81;7285542;19;152808;-58
2022/09/20 11:50:39;;;;;;;;;;;;;;;22.42;49.19;102396.53;7283617;19;153285;-59
2022/09/20 11:53:09;;;;;;;;;;;;;;;22.40;48.99;102393.13;7286141;19;151840;-59
2022/09/20 11:55:57;;;;;;;;;;;;;;;22.39;49.51;102396.25;7289211;19;152887;-59
2022/09/20 11:58:26;;;;;;;;;;;;;;;22.38;49.06;102401.03;7281063;19;152342;-58
2022/09/20 12:00:54;;;;;;;;;;;;;;;22.37;49.04;102390.91;7284982;19;153257;-58
2022/09/20 12:03:23;;;;;;;;;;;;;;;22.35;48.75;102397.97;7282207;19;153423;-59
2022/09/20 12:05:58;;;;;;;;;;;;;;;22.35;49.07;102397.97;7281647;19;152759;-59
2022/09/20 12:08:26;;;;;;;;;;;;;;;22.33;48.96;102401.06;7268938;19;154312;-59
2022/09/20 12:10:55;;;;;;;;;;;;;;;22.32;49.31;102396.53;7275556;19;153798;-59
2022/09/20 12:13:23;;;;;;;;;;;;;;;22.32;49.11;102393.72;7279466;19;152451;-59
2022/09/20 12:16:19;;;;;;;;;;;;;;;22.31;49.26;102385.56;7274055;19;153266;-59
2022/09/20 12:18:52;;;;;;;;;;;;;;;22.30;49.74;102393.19;7283744;19;155883;-58
2022/09/20 12:21:20;;;;;;;;;;;;;;;22.29;49.81;102397.13;7279503;19;153792;-59
2022/09/20 12:23:56;;;;;;;;;;;;;;;22.27;49.30;102388.09;7277755;19;154111;-59
2022/09/20 12:26:26;;;;;;;;;;;;;;;22.28;49.43;102386.13;7279737;19;152517;-59
2022/09/20 12:28:54;;;;;;;;;;;;;;;22.28;49.61;102380.50;7279977;19;154106;-59
2022/09/20 12:31:21;;;;;;;;;;;;;;;22.28;49.44;102394.59;7278249;19;154281;-59
2022/09/20 12:33:56;;;;;;;;;;;;;;;22.28;49.57;102386.97;7280258;19;151853;-59
2022/09/20 12:36:25;;;;;;;;;;;;;;;22.30;49.85;102390.38;7272966;19;152403;-59
2022/09/20 12:39:08;;;;;;;;;;;;;;;22.30;49.96;102383.88;7278438;19;153338;-59
2022/09/20 12:41:50;;;;;;;;;;;;;;;22.28;49.72;102384.16;7287664;19;152227;-58
2022/09/20 12:44:29;;;;;;;;;;;;;;;22.30;49.58;102386.72;7275194;19;153414;-58
2022/09/20 12:47:00;;;;;;;;;;;;;;;22.30;49.86;102392.34;7278198;19;153883;-58
2022/09/20 12:55:11;;;;;;;;;;;;;;;22.26;49.50;102379.97;7273874;19;152137;-59
2022/09/20 12:57:38;;;;;;;;;;;;;;;22.27;49.66;102384.44;7273197;19;153842;-59
2022/09/20 13:00:06;;;;;;;;;;;;;;;22.29;50.03;102376.56;7278491;19;154274;-58
2022/09/20 13:02:51;;;;;;;;;;;;;;;22.28;50.00;102378.53;7283216;19;152106;-59
2022/09/20 13:05:32;;;;;;;;;;;;;;;22.29;49.96;102380.22;7287063;19;152864;-59
2022/09/20 13:08:08;;;;;;;;;;;;;;;22.29;50.15;102377.41;7285240;19;152040;-58
2022/09/20 13:10:36;;;;;;;;;;;;;;;22.30;50.31;102381.06;7280325;19;153750;-58
2022/09/20 13:13:11;;;;;;;;;;;;;;;22.27;50.46;102367.53;7275396;19;154216;-58
2022/09/20 13:15:39;;;;;;;;;;;;;;;22.26;50.08;102380.78;7282761;19;154458;-59
2022/09/20 13:18:11;;;;;;;;;;;;;;;22.25;50.28;102383.91;7280847;19;152903;-59
2022/09/20 13:20:40;;;;;;;;;;;;;;;22.23;50.54;102375.72;7281778;19;153505;-58
2022/09/20 13:23:15;;;;;;;;;;;;;;;22.20;50.31;102373.50;7281833;19;152063;-58
2022/09/20 13:25:42;;;;;;;;;;;;;;;22.19;50.13;102374.63;7271808;19;153283;-59
2022/09/20 13:28:17;;;;;;;;;;;;;;;22.18;50.53;102378.56;7282316;19;152552;-58